createdAt,value
2019-01-17T00:02:15.682Z,188.37
2019-01-17T00:04:45.591Z,191.70
2019-01-17T00:07:14.867Z,198.30
2019-01-17T00:09:44.380Z,194.57
2019-01-17T00:12:13.901Z,204.60
2019-01-17T00:14:43.724Z,201.23
2019-01-17T00:17:13.726Z,210.80
2019-01-17T00:19:43.326Z,200.87
2019-01-17T00:22:12.839Z,196.73
2019-01-17T00:24:42.126Z,200.30
2019-01-17T00:27:11.738Z,198.43
2019-01-17T00:29:41.253Z,192.67
2019-01-17T00:32:10.652Z,190.07
2019-01-17T00:34:40.609Z,185.27
2019-01-17T00:37:10.327Z,183.80
2019-01-17T00:39:39.962Z,188.13
2019-01-17T00:42:10.082Z,201.63
2019-01-17T00:44:40.602Z,197.03
2019-01-17T00:47:11.464Z,201.10
2019-01-17T00:49:41.054Z,210.17
2019-01-17T00:52:10.562Z,200.53
2019-01-17T00:54:40.381Z,195.53
2019-01-17T00:57:10.182Z,208.83
2019-01-17T00:59:40.179Z,220.13
2019-01-17T01:02:10.614Z,224.00
2019-01-17T01:04:41.994Z,228.80
2019-01-17T01:07:12.159Z,243.37
2019-01-17T01:09:43.237Z,260.73
2019-01-17T01:12:13.802Z,244.60
2019-01-17T01:14:43.897Z,226.37
2019-01-17T01:17:13.993Z,221.23
2019-01-17T01:19:43.593Z,227.13
2019-01-17T01:22:13.382Z,242.27
2019-01-17T01:24:43.383Z,237.30
2019-01-17T01:27:13.259Z,227.57
2019-01-17T01:29:42.843Z,213.00
2019-01-17T01:32:12.768Z,200.57
2019-01-17T01:34:42.800Z,199.53
2019-01-17T01:37:12.985Z,205.00
2019-01-17T01:39:43.525Z,206.40
2019-01-17T01:42:14.417Z,194.03
2019-01-17T01:44:44.303Z,188.77
2019-01-17T01:47:14.588Z,179.63
2019-01-17T01:49:44.689Z,184.67
2019-01-17T01:52:15.146Z,194.27
2019-01-17T01:54:45.465Z,225.37
2019-01-17T01:57:15.864Z,212.67
2019-01-17T01:59:46.270Z,232.80
2019-01-17T02:02:16.347Z,229.70
2019-01-17T02:04:46.745Z,209.10
2019-01-17T02:07:16.822Z,224.93
2019-01-17T02:09:46.737Z,221.90
2019-01-17T02:12:16.981Z,211.53
2019-01-17T02:14:46.856Z,211.37
2019-01-17T02:17:17.173Z,222.63
2019-01-17T02:19:47.391Z,216.10
2019-01-17T02:22:17.703Z,215.17
2019-01-17T02:24:47.724Z,213.50
2019-01-17T02:27:17.834Z,220.07
2019-01-17T02:29:48.821Z,215.17
2019-01-17T02:32:19.228Z,209.83
2019-01-17T02:34:49.749Z,190.23
2019-01-17T02:37:20.337Z,193.63
2019-01-17T02:39:49.978Z,190.80
2019-01-17T02:42:20.445Z,194.33
2019-01-17T02:44:50.294Z,191.73
2019-01-17T02:47:20.741Z,182.93
2019-01-17T02:49:51.135Z,180.00
2019-01-17T02:52:21.194Z,174.60
2019-01-17T02:54:51.207Z,171.57
2019-01-17T02:57:21.304Z,174.67
2019-01-17T02:59:52.024Z,179.93
2019-01-17T03:02:21.554Z,174.40
2019-01-17T03:04:52.019Z,185.43
2019-01-17T03:07:22.202Z,182.10
2019-01-17T03:09:52.243Z,167.60
2019-01-17T03:12:22.242Z,178.80
2019-01-17T03:14:52.375Z,175.63
2019-01-17T03:17:22.389Z,182.63
2019-01-17T03:19:52.561Z,177.30
2019-01-17T03:22:22.738Z,176.33
2019-01-17T03:24:53.034Z,182.97
2019-01-17T03:27:22.957Z,190.23
2019-01-17T03:29:52.655Z,191.37
2019-01-17T03:32:22.305Z,191.20
2019-01-17T03:34:52.597Z,188.73
2019-01-17T03:37:22.606Z,197.63
2019-01-17T03:39:52.577Z,191.03
2019-01-17T03:42:22.890Z,192.00
2019-01-17T03:44:52.821Z,184.13
2019-01-17T03:47:22.970Z,183.50
2019-01-17T03:49:53.134Z,184.60
2019-01-17T03:52:23.271Z,197.57
2019-01-17T03:54:54.062Z,200.70
2019-01-17T03:57:23.685Z,202.27
2019-01-17T03:59:54.064Z,202.00
2019-01-17T04:02:24.332Z,194.10
2019-01-17T04:04:54.748Z,195.20
2019-01-17T04:07:24.385Z,204.47
2019-01-17T04:09:54.678Z,196.30
2019-01-17T04:12:24.474Z,201.47
2019-01-17T04:14:54.597Z,207.30
2019-01-17T04:17:24.625Z,210.93
2019-01-17T04:19:54.792Z,198.67
2019-01-17T04:22:24.752Z,197.93
2019-01-17T04:24:57.502Z,194.63
2019-01-17T04:27:25.193Z,216.47
2019-01-17T04:29:55.327Z,207.27
2019-01-17T04:32:25.632Z,193.40
2019-01-17T04:34:55.688Z,202.03
2019-01-17T04:37:25.551Z,211.53
2019-01-17T04:39:55.920Z,206.13
2019-01-17T04:42:25.681Z,198.97
2019-01-17T04:44:55.683Z,215.23
2019-01-17T04:47:25.787Z,212.07
2019-01-17T04:49:56.274Z,224.13
2019-01-17T04:52:26.585Z,220.63
2019-01-17T04:54:56.663Z,211.47
2019-01-17T04:57:26.550Z,221.73
2019-01-17T04:59:57.162Z,216.80
2019-01-17T05:02:27.521Z,202.30
2019-01-17T05:04:57.178Z,217.33
2019-01-17T05:07:27.705Z,213.53
2019-01-17T05:09:57.915Z,219.93
2019-01-17T05:12:28.193Z,217.60
2019-01-17T05:14:58.266Z,227.13
2019-01-17T05:17:28.426Z,227.87
2019-01-17T05:19:58.530Z,223.97
2019-01-17T05:22:28.527Z,227.37
2019-01-17T05:24:58.621Z,223.53
2019-01-17T05:27:28.551Z,221.10
2019-01-17T05:29:58.838Z,210.93
2019-01-17T05:32:29.137Z,224.67
2019-01-17T05:34:59.237Z,223.47
2019-01-17T05:37:29.032Z,228.67
2019-01-17T05:39:59.074Z,212.93
2019-01-17T05:42:29.074Z,216.40
2019-01-17T05:44:59.525Z,216.90
2019-01-17T05:47:29.736Z,206.43
2019-01-17T05:50:00.200Z,197.43
2019-01-17T05:52:30.463Z,191.93
2019-01-17T05:55:00.583Z,176.30
2019-01-17T05:57:30.621Z,145.43
2019-01-17T06:00:00.818Z,143.73
2019-01-17T06:02:30.628Z,142.10
2019-01-17T06:05:00.826Z,130.70
2019-01-17T06:07:30.975Z,103.60
2019-01-17T06:10:00.800Z,140.90
2019-01-17T06:12:31.113Z,137.47
2019-01-17T06:15:01.028Z,138.17
2019-01-17T06:17:30.898Z,134.43
2019-01-17T06:20:00.737Z,126.17
2019-01-17T06:22:30.751Z,128.40
2019-01-17T06:25:00.380Z,112.63
2019-01-17T06:27:30.313Z,108.37
2019-01-17T06:30:00.335Z,104.47
2019-01-17T06:32:30.734Z,101.73
2019-01-17T06:35:01.140Z,95.30
2019-01-17T06:37:31.205Z,97.90
2019-01-17T06:40:01.015Z,99.40
2019-01-17T06:42:30.597Z,99.53
2019-01-17T06:45:00.966Z,99.37
2019-01-17T06:47:30.885Z,96.40
2019-01-17T06:50:01.276Z,86.33
2019-01-17T06:52:31.275Z,86.33
2019-01-17T06:55:01.766Z,80.57
2019-01-17T06:57:32.123Z,80.87
2019-01-17T07:00:02.243Z,90.43
2019-01-17T07:02:31.928Z,84.13
2019-01-17T07:05:02.077Z,86.30
2019-01-17T07:07:32.087Z,88.30
2019-01-17T07:10:01.927Z,100.60
2019-01-17T07:12:32.018Z,96.77
2019-01-17T07:15:02.424Z,100.97
2019-01-17T07:17:31.957Z,101.03
2019-01-17T07:20:02.021Z,103.67
2019-01-17T07:22:31.880Z,101.60
2019-01-17T07:25:02.154Z,96.63
2019-01-17T07:27:32.152Z,90.07
2019-01-17T07:30:02.135Z,97.23
2019-01-17T07:32:32.239Z,91.80
2019-01-17T07:35:02.084Z,95.07
2019-01-17T07:37:32.639Z,93.33
2019-01-17T07:40:02.923Z,91.07
2019-01-17T07:42:32.995Z,89.33
2019-01-17T07:45:02.743Z,91.93
2019-01-17T07:47:32.826Z,91.73
2019-01-17T07:50:02.895Z,89.90
2019-01-17T07:52:33.002Z,92.77
2019-01-17T07:55:03.043Z,88.17
2019-01-17T07:57:32.800Z,84.47
2019-01-17T08:00:02.595Z,82.60
2019-01-17T08:02:32.082Z,78.90
2019-01-17T08:05:02.449Z,78.77
2019-01-17T08:07:32.497Z,76.43
2019-01-17T08:10:02.740Z,73.80
2019-01-17T08:12:33.031Z,71.30
2019-01-17T08:15:03.364Z,65.00
2019-01-17T08:17:33.456Z,96.50
2019-01-17T08:20:03.606Z,66.43
2019-01-17T08:22:33.604Z,64.63
2019-01-17T08:25:03.840Z,61.13
2019-01-17T08:27:34.642Z,59.27
2019-01-17T08:30:04.893Z,60.30
2019-01-17T08:32:34.733Z,59.50
2019-01-17T08:35:04.983Z,59.57
2019-01-17T08:37:34.503Z,60.13
2019-01-17T08:40:04.196Z,59.47
2019-01-17T08:42:33.697Z,57.17
2019-01-17T08:45:03.767Z,58.73
2019-01-17T08:47:33.639Z,57.03
2019-01-17T08:50:03.362Z,54.03
2019-01-17T08:52:33.351Z,53.43
2019-01-17T08:55:03.392Z,54.27
2019-01-17T08:57:33.561Z,54.67
2019-01-17T09:00:03.282Z,52.33
2019-01-17T09:02:33.402Z,52.30
2019-01-17T09:05:03.698Z,51.57
2019-01-17T09:07:33.762Z,51.17
2019-01-17T09:10:03.323Z,52.90
2019-01-17T09:12:33.126Z,49.27
2019-01-17T09:15:03.047Z,53.33
2019-01-17T09:17:33.194Z,53.23
2019-01-17T09:20:03.280Z,51.83
2019-01-17T09:22:33.399Z,49.40
2019-01-17T09:25:03.410Z,52.33
2019-01-17T09:27:33.551Z,51.07
2019-01-17T09:30:03.873Z,74.40
2019-01-17T09:32:33.649Z,53.30
2019-01-17T09:35:04.119Z,63.67
2019-01-17T09:37:34.431Z,59.17
2019-01-17T09:40:04.637Z,52.97
2019-01-17T09:42:34.352Z,50.30
2019-01-17T09:45:04.334Z,50.40
2019-01-17T09:47:34.182Z,49.10
2019-01-17T09:50:04.624Z,47.90
2019-01-17T09:52:34.465Z,50.27
2019-01-17T09:55:04.756Z,50.37
2019-01-17T09:57:34.875Z,50.13
2019-01-17T10:00:05.758Z,50.83
2019-01-17T10:02:36.270Z,49.80
2019-01-17T10:05:06.362Z,48.30
2019-01-17T10:07:36.666Z,48.77
2019-01-17T10:10:06.763Z,48.17
2019-01-17T10:12:36.820Z,49.17
2019-01-17T10:15:07.121Z,47.00
2019-01-17T10:17:37.570Z,48.17
2019-01-17T10:20:07.368Z,49.43
2019-01-17T10:22:37.788Z,50.57
2019-01-17T10:25:08.221Z,47.83
2019-01-17T10:27:38.258Z,50.67
2019-01-17T10:30:08.052Z,50.80
2019-01-17T10:32:37.990Z,51.37
2019-01-17T10:35:08.424Z,48.23
2019-01-17T10:37:38.882Z,47.30
2019-01-17T10:40:09.045Z,46.90
2019-01-17T10:42:39.397Z,47.70
2019-01-17T10:45:09.148Z,49.57
2019-01-17T10:47:39.229Z,45.77
2019-01-17T10:50:08.984Z,49.23
2019-01-17T10:52:39.043Z,46.23
2019-01-17T10:55:09.282Z,46.90
2019-01-17T10:57:39.585Z,49.20
2019-01-17T11:00:09.594Z,50.57
2019-01-17T11:02:39.703Z,49.40
2019-01-17T11:05:09.723Z,49.83
2019-01-17T11:07:39.831Z,53.17
2019-01-17T11:10:09.599Z,53.50
2019-01-17T11:12:39.773Z,60.63
2019-01-17T11:15:09.486Z,60.17
2019-01-17T11:17:40.165Z,60.53
2019-01-17T11:20:09.715Z,67.53
2019-01-17T11:22:40.149Z,71.43
2019-01-17T11:25:10.886Z,73.77
2019-01-17T11:27:41.824Z,72.13
2019-01-17T11:30:11.935Z,71.40
2019-01-17T11:32:41.956Z,63.73
2019-01-17T11:35:12.349Z,63.57
2019-01-17T11:37:42.393Z,62.60
2019-01-17T11:40:12.477Z,62.03
2019-01-17T11:42:42.554Z,59.37
2019-01-17T11:45:12.674Z,61.53
2019-01-17T11:47:42.773Z,61.33
2019-01-17T11:50:12.808Z,59.33
2019-01-17T11:52:42.483Z,58.73
2019-01-17T11:55:12.313Z,60.53
2019-01-17T11:57:42.517Z,64.00
2019-01-17T12:00:12.799Z,65.43
2019-01-17T12:02:42.882Z,62.90
2019-01-17T12:05:12.995Z,74.97
2019-01-17T12:07:43.355Z,66.63
2019-01-17T12:10:13.564Z,69.40
2019-01-17T12:12:43.676Z,74.87
2019-01-17T12:15:14.017Z,71.90
2019-01-17T12:17:44.101Z,83.57
2019-01-17T12:20:14.097Z,75.90
2019-01-17T12:22:44.256Z,78.97
2019-01-17T12:25:14.281Z,90.47
2019-01-17T12:27:44.303Z,89.23
2019-01-17T12:30:14.203Z,212.97
2019-01-17T12:32:44.075Z,148.77
2019-01-17T12:35:13.684Z,131.37
2019-01-17T12:37:43.969Z,131.77
2019-01-17T12:40:13.842Z,102.60
2019-01-17T12:42:43.689Z,89.30
2019-01-17T12:45:14.302Z,89.83
2019-01-17T12:47:44.270Z,91.03
2019-01-17T12:50:14.253Z,87.73
2019-01-17T12:52:44.568Z,90.83
2019-01-17T12:55:14.662Z,103.00
2019-01-17T12:57:44.816Z,102.87
2019-01-17T13:00:15.202Z,105.13
2019-01-17T13:02:45.763Z,100.77
2019-01-17T13:05:15.706Z,96.73
2019-01-17T13:07:46.033Z,99.70
2019-01-17T13:10:15.682Z,103.90
2019-01-17T13:12:45.803Z,112.60
2019-01-17T13:15:16.222Z,104.43
2019-01-17T13:17:46.298Z,100.07
2019-01-17T13:20:16.791Z,104.40
2019-01-17T13:22:47.391Z,101.70
2019-01-17T13:25:17.796Z,106.80
2019-01-17T13:27:47.533Z,103.73
2019-01-17T13:30:18.076Z,103.80
2019-01-17T13:32:48.004Z,101.83
2019-01-17T13:35:18.091Z,108.10
2019-01-17T13:37:48.489Z,114.23
2019-01-17T13:40:19.016Z,124.03
2019-01-17T13:42:48.996Z,119.17
2019-01-17T13:45:19.084Z,116.40
2019-01-17T13:47:48.807Z,113.23
2019-01-17T13:50:18.623Z,127.93
2019-01-17T13:52:48.664Z,126.50
2019-01-17T13:55:18.904Z,133.67
2019-01-17T13:57:49.778Z,128.07
2019-01-17T14:00:20.321Z,126.20
2019-01-17T14:02:50.476Z,137.27
2019-01-17T14:05:20.438Z,140.20
2019-01-17T14:07:50.425Z,139.47
2019-01-17T14:10:21.153Z,137.53
2019-01-17T14:12:51.317Z,136.83
2019-01-17T14:15:20.721Z,127.73
2019-01-17T14:17:50.784Z,141.13
2019-01-17T14:20:20.862Z,148.13
2019-01-17T14:22:51.137Z,139.47
2019-01-17T14:25:21.227Z,143.37
2019-01-17T14:27:50.942Z,137.07
2019-01-17T14:30:21.151Z,138.43
2019-01-17T14:32:50.767Z,151.43
2019-01-17T14:35:20.996Z,138.90
2019-01-17T14:37:50.813Z,138.20
2019-01-17T14:40:21.243Z,132.60
2019-01-17T14:42:50.813Z,131.23
2019-01-17T14:45:20.872Z,136.30
2019-01-17T14:47:51.383Z,132.17
2019-01-17T14:50:21.498Z,134.30
2019-01-17T14:52:51.433Z,133.57
2019-01-17T14:55:21.500Z,136.40
2019-01-17T14:57:51.440Z,139.13
2019-01-17T15:00:22.077Z,144.23
2019-01-17T15:02:52.493Z,138.83
2019-01-17T15:05:22.971Z,146.70
2019-01-17T15:07:52.964Z,158.13
2019-01-17T15:10:23.139Z,153.17
2019-01-17T15:12:53.171Z,162.93
2019-01-17T15:15:23.521Z,151.00
2019-01-17T15:17:53.612Z,147.47
2019-01-17T15:20:24.011Z,150.63
2019-01-17T15:22:54.441Z,147.70
2019-01-17T15:25:24.572Z,153.30
2019-01-17T15:27:54.730Z,153.80
2019-01-17T15:30:25.322Z,146.17
2019-01-17T15:32:55.362Z,147.20
2019-01-17T15:35:25.456Z,143.43
2019-01-17T15:37:55.441Z,144.53
2019-01-17T15:40:25.357Z,151.40
2019-01-17T15:42:55.360Z,146.07
2019-01-17T15:45:25.486Z,157.50
2019-01-17T15:47:55.928Z,154.17
2019-01-17T15:50:25.888Z,159.83
2019-01-17T15:52:56.036Z,172.33
2019-01-17T15:55:26.446Z,183.87
2019-01-17T15:57:56.626Z,179.73
2019-01-17T16:00:27.050Z,169.07
2019-01-17T16:02:57.120Z,184.13
2019-01-17T16:05:27.264Z,196.53
2019-01-17T16:07:57.746Z,187.20
2019-01-17T16:10:27.786Z,191.00
2019-01-17T16:12:57.900Z,190.33
2019-01-17T16:15:28.010Z,192.37
2019-01-17T16:17:58.032Z,201.73
2019-01-17T16:20:27.779Z,201.53
2019-01-17T16:22:57.952Z,204.27
2019-01-17T16:25:27.639Z,197.93
2019-01-17T16:27:57.691Z,196.50
2019-01-17T16:30:27.750Z,200.70
2019-01-17T16:32:57.749Z,210.57
2019-01-17T16:35:27.854Z,202.03
2019-01-17T16:37:58.212Z,197.00
2019-01-17T16:40:28.691Z,202.80
2019-01-17T16:42:58.855Z,199.20
2019-01-17T16:45:35.184Z,196.20
2019-01-17T16:47:59.542Z,203.47
2019-01-17T16:50:29.634Z,208.83
2019-01-17T16:52:59.827Z,203.63
2019-01-17T16:55:30.061Z,197.13
2019-01-17T16:57:59.959Z,198.53
2019-01-17T17:00:30.058Z,203.60
2019-01-17T17:02:59.868Z,217.20
2019-01-17T17:05:30.193Z,204.93
2019-01-17T17:08:00.321Z,204.90
2019-01-17T17:10:30.222Z,214.63
2019-01-17T17:12:59.990Z,210.57
2019-01-17T17:15:30.389Z,208.30
2019-01-17T17:18:00.427Z,191.13
2019-01-17T17:20:30.616Z,194.97
2019-01-17T17:23:00.850Z,191.97
2019-01-17T17:25:31.162Z,192.83
2019-01-17T17:28:01.277Z,193.17
2019-01-17T17:30:31.207Z,188.73
2019-01-17T17:33:01.411Z,193.33
2019-01-17T17:35:32.104Z,193.40
2019-01-17T17:38:02.313Z,191.13
2019-01-17T17:40:32.709Z,192.43
2019-01-17T17:43:03.116Z,200.50
2019-01-17T17:45:33.406Z,202.53
2019-01-17T17:48:03.543Z,202.33
2019-01-17T17:50:33.777Z,207.70
2019-01-17T17:53:04.022Z,207.80
2019-01-17T17:55:34.467Z,208.20
2019-01-17T17:58:04.539Z,215.23
2019-01-17T18:00:35.068Z,220.57
2019-01-17T18:03:05.314Z,213.33
2019-01-17T18:05:35.472Z,213.63
2019-01-17T18:08:05.798Z,212.63
2019-01-17T18:10:35.870Z,204.77
2019-01-17T18:13:05.634Z,199.53
2019-01-17T18:15:35.867Z,199.20
2019-01-17T18:18:06.433Z,195.23
2019-01-17T18:20:35.991Z,189.33
2019-01-17T18:23:06.303Z,188.60
2019-01-17T18:25:36.699Z,190.70
2019-01-17T18:28:08.854Z,192.63
2019-01-17T18:30:37.888Z,194.13
2019-01-17T18:33:07.861Z,204.13
2019-01-17T18:35:38.066Z,200.13
2019-01-17T18:38:08.144Z,210.57
2019-01-17T18:40:38.423Z,208.50
2019-01-17T18:43:08.859Z,193.60
2019-01-17T18:45:39.232Z,208.53
2019-01-17T18:48:09.753Z,206.57
2019-01-17T18:50:40.345Z,200.23
2019-01-17T18:53:10.587Z,205.77
2019-01-17T18:55:40.838Z,204.07
2019-01-17T18:58:15.513Z,200.90
2019-01-17T19:00:41.988Z,200.90
2019-01-17T19:03:12.386Z,198.57
2019-01-17T19:05:42.519Z,205.57
2019-01-17T19:08:12.865Z,203.27
2019-01-17T19:10:43.067Z,201.70
2019-01-17T19:13:13.319Z,197.10
2019-01-17T19:15:43.430Z,195.90
2019-01-17T19:18:13.502Z,200.27
2019-01-17T19:20:43.625Z,208.17
2019-01-17T19:23:13.782Z,205.20
2019-01-17T19:25:44.513Z,199.73
2019-01-17T19:28:15.068Z,197.77
2019-01-17T19:30:45.040Z,199.93
2019-01-17T19:33:15.588Z,195.40
2019-01-17T19:35:45.612Z,198.07
2019-01-17T19:38:15.708Z,199.30
2019-01-17T19:40:45.831Z,199.27
2019-01-17T19:43:15.852Z,202.07
2019-01-17T19:45:45.947Z,199.90
2019-01-17T19:48:16.175Z,208.90
2019-01-17T19:50:46.557Z,206.53
2019-01-17T19:53:17.225Z,206.57
2019-01-17T19:55:47.273Z,204.23
2019-01-17T19:58:17.549Z,206.50
2019-01-17T20:00:48.158Z,206.27
2019-01-17T20:03:18.757Z,213.57
2019-01-17T20:05:48.986Z,213.53
2019-01-17T20:08:19.235Z,213.63
2019-01-17T20:10:49.425Z,207.53
2019-01-17T20:13:19.624Z,207.23
2019-01-17T20:15:50.093Z,215.90
2019-01-17T20:18:20.192Z,220.27
2019-01-17T20:20:50.273Z,212.80
2019-01-17T20:23:20.663Z,212.77
2019-01-17T20:25:50.625Z,214.33
2019-01-17T20:28:20.756Z,221.30
2019-01-17T20:30:50.893Z,224.80
2019-01-17T20:33:20.822Z,216.70
2019-01-17T20:35:51.419Z,222.80
2019-01-17T20:38:21.470Z,209.87
2019-01-17T20:40:57.957Z,214.20
2019-01-17T20:43:22.414Z,213.10
2019-01-17T20:45:52.673Z,233.33
2019-01-17T20:48:22.830Z,229.87
2019-01-17T20:50:52.742Z,228.20
2019-01-17T20:53:22.465Z,229.10
2019-01-17T20:55:52.151Z,219.67
2019-01-17T20:58:21.464Z,221.47
2019-01-17T21:00:51.463Z,220.07
2019-01-17T21:03:20.867Z,212.53
2019-01-17T21:05:50.799Z,210.87
2019-01-17T21:08:20.631Z,209.23
2019-01-17T21:10:50.504Z,203.10
2019-01-17T21:13:20.995Z,201.57
2019-01-17T21:15:51.071Z,204.33
2019-01-17T21:18:21.473Z,199.63
2019-01-17T21:20:51.543Z,200.70
2019-01-17T21:23:21.630Z,197.93
2019-01-17T21:25:51.748Z,198.50
2019-01-17T21:28:21.884Z,205.33
2019-01-17T21:30:51.897Z,208.63
2019-01-17T21:33:22.235Z,207.07
2019-01-17T21:35:52.467Z,218.17
2019-01-17T21:38:22.748Z,212.63
2019-01-17T21:40:53.143Z,219.50
2019-01-17T21:43:23.313Z,217.03
2019-01-17T21:45:53.452Z,222.07
2019-01-17T21:48:23.700Z,225.27
2019-01-17T21:50:53.867Z,228.37
2019-01-17T21:53:24.188Z,219.20
2019-01-17T21:55:54.273Z,220.93
2019-01-17T21:58:24.746Z,220.03
2019-01-17T22:00:54.742Z,227.57
2019-01-17T22:03:24.834Z,217.37
2019-01-17T22:05:54.591Z,225.77
2019-01-17T22:08:24.993Z,215.80
2019-01-17T22:10:55.421Z,219.50
2019-01-17T22:13:25.786Z,214.83
2019-01-17T22:15:56.272Z,212.67
2019-01-17T22:18:26.262Z,225.27
2019-01-17T22:20:56.321Z,216.87
2019-01-17T22:23:26.745Z,214.47
2019-01-17T22:25:57.186Z,201.67
2019-01-17T22:28:27.550Z,198.23
2019-01-17T22:30:58.264Z,199.60
2019-01-17T22:33:28.346Z,206.67
2019-01-17T22:35:58.746Z,214.43
2019-01-17T22:38:29.146Z,219.77
2019-01-17T22:40:59.229Z,208.23
2019-01-17T22:43:28.982Z,218.33
2019-01-17T22:45:59.403Z,214.47
2019-01-17T22:48:29.591Z,213.37
2019-01-17T22:50:59.591Z,211.07
2019-01-17T22:53:29.382Z,207.80
2019-01-17T22:55:59.062Z,211.73
2019-01-17T22:58:29.536Z,208.03
2019-01-17T23:00:59.631Z,217.97
2019-01-17T23:03:29.344Z,208.00
2019-01-17T23:05:59.392Z,222.67
2019-01-17T23:08:29.307Z,219.37
2019-01-17T23:10:59.871Z,214.33
2019-01-17T23:13:29.962Z,215.60
2019-01-17T23:16:00.144Z,209.77
2019-01-17T23:18:29.874Z,218.47
2019-01-17T23:20:59.677Z,208.67
2019-01-17T23:23:29.794Z,209.53
2019-01-17T23:25:59.710Z,201.43
2019-01-17T23:28:30.085Z,214.40
2019-01-17T23:31:00.185Z,211.57
2019-01-17T23:33:30.074Z,215.23
2019-01-17T23:36:00.348Z,202.87
2019-01-17T23:38:30.036Z,207.53
2019-01-17T23:41:00.217Z,235.80
2019-01-17T23:43:30.303Z,231.63
2019-01-17T23:46:00.273Z,226.73
2019-01-17T23:48:31.186Z,228.97
2019-01-17T23:51:01.129Z,236.83
2019-01-17T23:53:30.864Z,243.63
2019-01-17T23:56:00.908Z,249.23
2019-01-17T23:58:30.751Z,243.20
